Terminal Aerodrome Forecast
Issued by NWS Chicago, IL

Home | Current Version | Previous Version | Text Only | Print | Product List | Glossary Off
Versions: 1 2 3 4 5 6 7 8 9 10 11 12 13 14 15 16 17 18 19 20 21 22 23 24 25 26 27 28 29 30

844
FTUS43 KLOT 271448 AAA
TAFRFD
TAF AMD
KRFD 271448Z 2715/2812 VRB03KT P6SM BKN250
     FM271900 22005KT P6SM FEW050 SCT200
     FM280200 15004KT P6SM BKN200
     FM280600 14004KT P6SM VCSH SCT050 BKN100=

USA.gov is the U.S. government's official web portal to all federal, state and local government web resources and services.